sensor_id;sensor_type;location;lat;lon;timestamp;P1;durP1;ratioP1;P2;durP2;ratioP2
20124;SDS011;10223;50.862;4.360;2023-12-22T00:02:26;13.43;;;2.87;;
20124;SDS011;10223;50.862;4.360;2023-12-22T00:04:53;15.13;;;3.30;;
20124;SDS011;10223;50.862;4.360;2023-12-22T00:07:20;14.47;;;2.77;;
20124;SDS011;10223;50.862;4.360;2023-12-22T00:09:47;18.97;;;2.80;;
20124;SDS011;10223;50.862;4.360;2023-12-22T00:12:16;11.87;;;2.27;;
20124;SDS011;10223;50.862;4.360;2023-12-22T00:14:46;16.47;;;2.27;;
20124;SDS011;10223;50.862;4.360;2023-12-22T00:17:13;13.27;;;2.40;;
20124;SDS011;10223;50.862;4.360;2023-12-22T00:19:40;10.40;;;2.53;;
20124;SDS011;10223;50.862;4.360;2023-12-22T00:22:07;11.57;;;2.10;;
20124;SDS011;10223;50.862;4.360;2023-12-22T00:24:34;13.70;;;2.20;;
20124;SDS011;10223;50.862;4.360;2023-12-22T00:27:01;13.90;;;2.30;;
20124;SDS011;10223;50.862;4.360;2023-12-22T00:29:30;11.00;;;2.57;;
20124;SDS011;10223;50.862;4.360;2023-12-22T00:32:00;9.60;;;2.00;;
20124;SDS011;10223;50.862;4.360;2023-12-22T00:34:27;7.50;;;1.83;;
20124;SDS011;10223;50.862;4.360;2023-12-22T00:36:54;13.70;;;1.90;;
20124;SDS011;10223;50.862;4.360;2023-12-22T00:39:21;14.77;;;1.90;;
20124;SDS011;10223;50.862;4.360;2023-12-22T00:41:48;9.23;;;1.60;;
20124;SDS011;10223;50.862;4.360;2023-12-22T00:44:15;13.37;;;2.43;;
20124;SDS011;10223;50.862;4.360;2023-12-22T00:46:44;21.70;;;2.63;;
20124;SDS011;10223;50.862;4.360;2023-12-22T00:49:11;18.07;;;3.03;;
20124;SDS011;10223;50.862;4.360;2023-12-22T00:51:37;19.93;;;3.47;;
20124;SDS011;10223;50.862;4.360;2023-12-22T00:54:05;17.00;;;2.77;;
20124;SDS011;10223;50.862;4.360;2023-12-22T00:56:32;14.83;;;2.70;;
20124;SDS011;10223;50.862;4.360;2023-12-22T00:58:59;21.03;;;3.03;;
20124;SDS011;10223;50.862;4.360;2023-12-22T01:01:26;19.90;;;2.73;;
20124;SDS011;10223;50.862;4.360;2023-12-22T01:03:54;17.10;;;2.80;;
20124;SDS011;10223;50.862;4.360;2023-12-22T01:06:21;17.07;;;3.03;;
20124;SDS011;10223;50.862;4.360;2023-12-22T01:08:48;24.30;;;3.10;;
20124;SDS011;10223;50.862;4.360;2023-12-22T01:11:15;16.37;;;2.80;;
20124;SDS011;10223;50.862;4.360;2023-12-22T01:13:43;23.70;;;3.57;;
20124;SDS011;10223;50.862;4.360;2023-12-22T01:16:10;27.63;;;3.17;;
20124;SDS011;10223;50.862;4.360;2023-12-22T01:18:37;19.03;;;3.43;;
20124;SDS011;10223;50.862;4.360;2023-12-22T01:21:09;18.17;;;3.17;;
20124;SDS011;10223;50.862;4.360;2023-12-22T01:23:36;17.97;;;2.97;;
20124;SDS011;10223;50.862;4.360;2023-12-22T01:26:03;18.60;;;2.87;;
20124;SDS011;10223;50.862;4.360;2023-12-22T01:28:30;18.83;;;3.43;;
20124;SDS011;10223;50.862;4.360;2023-12-22T01:30:57;20.50;;;3.13;;
20124;SDS011;10223;50.862;4.360;2023-12-22T01:33:24;17.53;;;3.23;;
20124;SDS011;10223;50.862;4.360;2023-12-22T01:35:50;14.27;;;2.87;;
20124;SDS011;10223;50.862;4.360;2023-12-22T01:38:19;21.60;;;2.87;;
20124;SDS011;10223;50.862;4.360;2023-12-22T01:40:46;18.80;;;3.33;;
20124;SDS011;10223;50.862;4.360;2023-12-22T01:43:13;27.67;;;3.20;;
20124;SDS011;10223;50.862;4.360;2023-12-22T01:45:42;17.23;;;2.73;;
20124;SDS011;10223;50.862;4.360;2023-12-22T01:48:10;20.00;;;3.30;;
20124;SDS011;10223;50.862;4.360;2023-12-22T01:50:37;16.90;;;2.97;;
20124;SDS011;10223;50.862;4.360;2023-12-22T01:53:04;21.53;;;3.90;;
20124;SDS011;10223;50.862;4.360;2023-12-22T01:55:33;16.23;;;3.47;;
20124;SDS011;10223;50.862;4.360;2023-12-22T01:58:00;19.47;;;2.87;;
20124;SDS011;10223;50.862;4.360;2023-12-22T02:00:27;19.33;;;3.70;;
20124;SDS011;10223;50.862;4.360;2023-12-22T02:02:55;26.57;;;4.03;;
20124;SDS011;10223;50.862;4.360;2023-12-22T02:05:22;21.10;;;3.20;;
20124;SDS011;10223;50.862;4.360;2023-12-22T02:07:49;18.93;;;3.13;;
20124;SDS011;10223;50.862;4.360;2023-12-22T02:10:16;19.77;;;4.10;;
20124;SDS011;10223;50.862;4.360;2023-12-22T02:12:44;27.77;;;3.77;;
20124;SDS011;10223;50.862;4.360;2023-12-22T02:15:11;20.80;;;3.37;;
20124;SDS011;10223;50.862;4.360;2023-12-22T02:17:41;17.07;;;3.40;;
20124;SDS011;10223;50.862;4.360;2023-12-22T02:20:13;20.57;;;3.97;;
20124;SDS011;10223;50.862;4.360;2023-12-22T02:22:42;16.27;;;3.07;;
20124;SDS011;10223;50.862;4.360;2023-12-22T02:25:09;22.73;;;4.20;;
20124;SDS011;10223;50.862;4.360;2023-12-22T02:27:38;17.70;;;3.70;;
20124;SDS011;10223;50.862;4.360;2023-12-22T02:30:11;22.20;;;4.13;;
20124;SDS011;10223;50.862;4.360;2023-12-22T02:32:42;21.60;;;4.20;;
20124;SDS011;10223;50.862;4.360;2023-12-22T02:35:11;19.53;;;3.10;;
20124;SDS011;10223;50.862;4.360;2023-12-22T02:37:44;14.27;;;2.93;;
20124;SDS011;10223;50.862;4.360;2023-12-22T02:40:13;14.20;;;2.30;;
20124;SDS011;10223;50.862;4.360;2023-12-22T02:42:41;12.13;;;2.40;;
20124;SDS011;10223;50.862;4.360;2023-12-22T02:45:12;11.47;;;2.40;;
20124;SDS011;10223;50.862;4.360;2023-12-22T02:47:39;12.73;;;2.37;;
20124;SDS011;10223;50.862;4.360;2023-12-22T02:50:06;12.73;;;2.23;;
20124;SDS011;10223;50.862;4.360;2023-12-22T02:52:34;8.37;;;2.00;;
20124;SDS011;10223;50.862;4.360;2023-12-22T02:55:03;10.10;;;2.20;;
20124;SDS011;10223;50.862;4.360;2023-12-22T02:57:30;8.90;;;1.90;;
20124;SDS011;10223;50.862;4.360;2023-12-22T02:59:57;11.30;;;1.83;;
20124;SDS011;10223;50.862;4.360;2023-12-22T03:02:25;15.73;;;2.43;;
20124;SDS011;10223;50.862;4.360;2023-12-22T03:04:52;10.40;;;2.47;;
20124;SDS011;10223;50.862;4.360;2023-12-22T03:07:19;7.67;;;1.63;;
20124;SDS011;10223;50.862;4.360;2023-12-22T03:09:46;12.03;;;2.17;;
20124;SDS011;10223;50.862;4.360;2023-12-22T03:12:14;11.37;;;1.67;;
20124;SDS011;10223;50.862;4.360;2023-12-22T03:14:41;13.50;;;2.20;;
20124;SDS011;10223;50.862;4.360;2023-12-22T03:17:08;10.40;;;2.03;;
20124;SDS011;10223;50.862;4.360;2023-12-22T03:19:36;9.77;;;2.30;;
20124;SDS011;10223;50.862;4.360;2023-12-22T03:22:03;14.27;;;2.63;;
20124;SDS011;10223;50.862;4.360;2023-12-22T03:24:29;15.63;;;2.90;;
20124;SDS011;10223;50.862;4.360;2023-12-22T03:26:56;18.67;;;3.20;;
20124;SDS011;10223;50.862;4.360;2023-12-22T03:29:25;17.00;;;2.57;;
20124;SDS011;10223;50.862;4.360;2023-12-22T03:31:52;22.37;;;3.03;;
20124;SDS011;10223;50.862;4.360;2023-12-22T03:34:19;19.63;;;2.87;;
20124;SDS011;10223;50.862;4.360;2023-12-22T03:36:46;20.60;;;3.57;;
20124;SDS011;10223;50.862;4.360;2023-12-22T03:39:14;18.83;;;3.40;;
20124;SDS011;10223;50.862;4.360;2023-12-22T03:41:41;15.27;;;3.03;;
20124;SDS011;10223;50.862;4.360;2023-12-22T03:44:07;16.90;;;3.50;;
20124;SDS011;10223;50.862;4.360;2023-12-22T03:46:36;13.53;;;2.63;;
20124;SDS011;10223;50.862;4.360;2023-12-22T03:49:03;23.97;;;4.10;;
20124;SDS011;10223;50.862;4.360;2023-12-22T03:51:30;15.47;;;3.00;;
20124;SDS011;10223;50.862;4.360;2023-12-22T03:53:57;26.07;;;3.13;;
20124;SDS011;10223;50.862;4.360;2023-12-22T03:56:23;19.43;;;2.90;;
20124;SDS011;10223;50.862;4.360;2023-12-22T03:58:50;15.63;;;3.10;;
20124;SDS011;10223;50.862;4.360;2023-12-22T04:01:18;13.77;;;2.67;;
20124;SDS011;10223;50.862;4.360;2023-12-22T04:03:47;13.77;;;2.40;;
20124;SDS011;10223;50.862;4.360;2023-12-22T04:06:14;12.07;;;2.30;;
20124;SDS011;10223;50.862;4.360;2023-12-22T04:08:41;15.80;;;2.87;;
20124;SDS011;10223;50.862;4.360;2023-12-22T04:11:08;17.80;;;2.27;;
20124;SDS011;10223;50.862;4.360;2023-12-22T04:13:35;17.00;;;2.60;;
20124;SDS011;10223;50.862;4.360;2023-12-22T04:16:02;17.27;;;3.30;;
20124;SDS011;10223;50.862;4.360;2023-12-22T04:18:30;16.33;;;2.53;;
20124;SDS011;10223;50.862;4.360;2023-12-22T04:20:59;10.07;;;2.43;;
20124;SDS011;10223;50.862;4.360;2023-12-22T04:23:26;13.77;;;2.40;;
20124;SDS011;10223;50.862;4.360;2023-12-22T04:25:55;15.07;;;3.13;;
20124;SDS011;10223;50.862;4.360;2023-12-22T04:28:22;19.40;;;3.20;;
20124;SDS011;10223;50.862;4.360;2023-12-22T04:30:49;23.43;;;3.37;;
20124;SDS011;10223;50.862;4.360;2023-12-22T04:33:16;21.17;;;3.43;;
20124;SDS011;10223;50.862;4.360;2023-12-22T04:35:43;24.73;;;3.03;;
20124;SDS011;10223;50.862;4.360;2023-12-22T04:38:12;24.47;;;3.63;;
20124;SDS011;10223;50.862;4.360;2023-12-22T04:40:39;20.70;;;3.73;;
20124;SDS011;10223;50.862;4.360;2023-12-22T04:43:06;25.73;;;3.90;;
20124;SDS011;10223;50.862;4.360;2023-12-22T04:45:32;24.33;;;5.00;;
20124;SDS011;10223;50.862;4.360;2023-12-22T04:47:59;23.67;;;4.00;;
20124;SDS011;10223;50.862;4.360;2023-12-22T04:50:26;22.63;;;3.80;;
20124;SDS011;10223;50.862;4.360;2023-12-22T04:52:53;25.57;;;3.33;;
20124;SDS011;10223;50.862;4.360;2023-12-22T04:55:22;20.93;;;3.30;;
20124;SDS011;10223;50.862;4.360;2023-12-22T04:57:49;21.83;;;3.63;;
20124;SDS011;10223;50.862;4.360;2023-12-22T05:00:19;26.30;;;4.23;;
20124;SDS011;10223;50.862;4.360;2023-12-22T05:02:46;30.57;;;4.20;;
20124;SDS011;10223;50.862;4.360;2023-12-22T05:05:13;26.30;;;3.80;;
20124;SDS011;10223;50.862;4.360;2023-12-22T05:07:40;19.47;;;3.23;;
20124;SDS011;10223;50.862;4.360;2023-12-22T05:10:07;26.37;;;4.43;;
20124;SDS011;10223;50.862;4.360;2023-12-22T05:12:35;33.10;;;4.47;;
20124;SDS011;10223;50.862;4.360;2023-12-22T05:15:03;26.00;;;4.20;;
20124;SDS011;10223;50.862;4.360;2023-12-22T05:17:31;20.47;;;3.53;;
20124;SDS011;10223;50.862;4.360;2023-12-22T05:19:58;34.30;;;5.10;;
20124;SDS011;10223;50.862;4.360;2023-12-22T05:22:25;24.20;;;3.87;;
20124;SDS011;10223;50.862;4.360;2023-12-22T05:24:55;28.00;;;5.20;;
20124;SDS011;10223;50.862;4.360;2023-12-22T05:27:22;26.30;;;4.00;;
20124;SDS011;10223;50.862;4.360;2023-12-22T05:29:50;26.90;;;4.53;;
20124;SDS011;10223;50.862;4.360;2023-12-22T05:32:17;30.37;;;4.53;;
20124;SDS011;10223;50.862;4.360;2023-12-22T05:34:44;21.03;;;4.07;;
20124;SDS011;10223;50.862;4.360;2023-12-22T05:37:11;26.10;;;4.93;;
20124;SDS011;10223;50.862;4.360;2023-12-22T05:39:38;21.70;;;3.43;;
20124;SDS011;10223;50.862;4.360;2023-12-22T05:42:05;20.87;;;4.63;;
20124;SDS011;10223;50.862;4.360;2023-12-22T05:44:32;19.30;;;3.73;;
20124;SDS011;10223;50.862;4.360;2023-12-22T05:47:01;21.93;;;4.60;;
20124;SDS011;10223;50.862;4.360;2023-12-22T05:49:28;26.83;;;5.00;;
20124;SDS011;10223;50.862;4.360;2023-12-22T05:51:54;25.87;;;4.57;;
20124;SDS011;10223;50.862;4.360;2023-12-22T05:54:21;25.13;;;4.33;;
20124;SDS011;10223;50.862;4.360;2023-12-22T05:56:50;29.63;;;4.90;;
20124;SDS011;10223;50.862;4.360;2023-12-22T05:59:18;24.33;;;4.47;;
20124;SDS011;10223;50.862;4.360;2023-12-22T06:01:45;26.17;;;4.43;;
20124;SDS011;10223;50.862;4.360;2023-12-22T06:04:14;22.00;;;4.23;;
20124;SDS011;10223;50.862;4.360;2023-12-22T06:06:43;18.50;;;3.53;;
20124;SDS011;10223;50.862;4.360;2023-12-22T06:09:10;24.93;;;4.13;;
20124;SDS011;10223;50.862;4.360;2023-12-22T06:11:38;24.77;;;4.43;;
20124;SDS011;10223;50.862;4.360;2023-12-22T06:14:05;29.33;;;4.30;;
20124;SDS011;10223;50.862;4.360;2023-12-22T06:16:32;18.13;;;3.83;;
20124;SDS011;10223;50.862;4.360;2023-12-22T06:18:59;15.60;;;3.30;;
20124;SDS011;10223;50.862;4.360;2023-12-22T06:21:27;22.20;;;3.93;;
20124;SDS011;10223;50.862;4.360;2023-12-22T06:23:54;20.60;;;3.73;;
20124;SDS011;10223;50.862;4.360;2023-12-22T06:26:21;24.10;;;3.40;;
20124;SDS011;10223;50.862;4.360;2023-12-22T06:28:48;23.07;;;3.10;;
20124;SDS011;10223;50.862;4.360;2023-12-22T06:31:16;23.03;;;4.20;;
20124;SDS011;10223;50.862;4.360;2023-12-22T06:33:45;19.80;;;3.00;;
20124;SDS011;10223;50.862;4.360;2023-12-22T06:36:17;19.97;;;3.50;;
20124;SDS011;10223;50.862;4.360;2023-12-22T06:38:46;15.17;;;3.03;;
20124;SDS011;10223;50.862;4.360;2023-12-22T06:41:20;17.73;;;3.87;;
20124;SDS011;10223;50.862;4.360;2023-12-22T06:43:47;20.30;;;3.03;;
20124;SDS011;10223;50.862;4.360;2023-12-22T06:46:15;15.70;;;2.73;;
20124;SDS011;10223;50.862;4.360;2023-12-22T06:48:43;16.03;;;2.77;;
20124;SDS011;10223;50.862;4.360;2023-12-22T06:51:16;13.07;;;2.93;;
20124;SDS011;10223;50.862;4.360;2023-12-22T06:53:44;10.00;;;1.83;;
20124;SDS011;10223;50.862;4.360;2023-12-22T06:56:16;10.73;;;2.33;;
20124;SDS011;10223;50.862;4.360;2023-12-22T06:58:44;10.67;;;2.10;;
20124;SDS011;10223;50.862;4.360;2023-12-22T07:01:17;10.37;;;1.90;;
20124;SDS011;10223;50.862;4.360;2023-12-22T07:03:45;9.80;;;1.60;;
20124;SDS011;10223;50.862;4.360;2023-12-22T07:06:13;14.53;;;2.10;;
20124;SDS011;10223;50.862;4.360;2023-12-22T07:08:40;15.00;;;2.00;;
20124;SDS011;10223;50.862;4.360;2023-12-22T07:11:07;19.80;;;3.27;;
20124;SDS011;10223;50.862;4.360;2023-12-22T07:13:36;9.37;;;2.00;;
20124;SDS011;10223;50.862;4.360;2023-12-22T07:16:03;10.10;;;2.27;;
20124;SDS011;10223;50.862;4.360;2023-12-22T07:18:31;9.53;;;1.77;;
20124;SDS011;10223;50.862;4.360;2023-12-22T07:20:59;10.83;;;1.57;;
20124;SDS011;10223;50.862;4.360;2023-12-22T07:23:26;9.57;;;2.10;;
20124;SDS011;10223;50.862;4.360;2023-12-22T07:25:53;9.57;;;1.93;;
20124;SDS011;10223;50.862;4.360;2023-12-22T07:28:20;11.03;;;1.93;;
20124;SDS011;10223;50.862;4.360;2023-12-22T07:30:48;8.07;;;1.60;;
20124;SDS011;10223;50.862;4.360;2023-12-22T07:33:16;9.73;;;1.70;;
20124;SDS011;10223;50.862;4.360;2023-12-22T07:35:42;11.20;;;1.73;;
20124;SDS011;10223;50.862;4.360;2023-12-22T07:38:09;5.70;;;1.53;;
20124;SDS011;10223;50.862;4.360;2023-12-22T07:40:36;5.43;;;1.40;;
20124;SDS011;10223;50.862;4.360;2023-12-22T07:43:03;6.80;;;1.40;;
20124;SDS011;10223;50.862;4.360;2023-12-22T07:45:30;6.80;;;1.63;;
20124;SDS011;10223;50.862;4.360;2023-12-22T07:47:59;4.47;;;1.47;;
20124;SDS011;10223;50.862;4.360;2023-12-22T07:50:25;7.63;;;1.47;;
20124;SDS011;10223;50.862;4.360;2023-12-22T07:52:52;10.30;;;1.70;;
20124;SDS011;10223;50.862;4.360;2023-12-22T07:55:19;4.33;;;0.90;;
20124;SDS011;10223;50.862;4.360;2023-12-22T07:57:46;6.07;;;1.47;;
20124;SDS011;10223;50.862;4.360;2023-12-22T08:00:14;7.37;;;1.43;;
20124;SDS011;10223;50.862;4.360;2023-12-22T08:02:41;3.67;;;0.97;;
20124;SDS011;10223;50.862;4.360;2023-12-22T08:05:11;3.50;;;1.07;;
20124;SDS011;10223;50.862;4.360;2023-12-22T08:07:39;7.07;;;1.50;;
20124;SDS011;10223;50.862;4.360;2023-12-22T08:10:07;5.60;;;1.10;;
20124;SDS011;10223;50.862;4.360;2023-12-22T08:12:34;4.63;;;1.43;;
20124;SDS011;10223;50.862;4.360;2023-12-22T08:15:02;2.17;;;1.50;;
20124;SDS011;10223;50.862;4.360;2023-12-22T08:17:30;4.80;;;1.50;;
20124;SDS011;10223;50.862;4.360;2023-12-22T08:19:58;5.40;;;1.50;;
20124;SDS011;10223;50.862;4.360;2023-12-22T08:22:27;6.43;;;1.63;;
20124;SDS011;10223;50.862;4.360;2023-12-22T08:24:54;8.53;;;1.83;;
20124;SDS011;10223;50.862;4.360;2023-12-22T08:27:21;3.50;;;1.63;;
20124;SDS011;10223;50.862;4.360;2023-12-22T08:29:48;5.13;;;1.80;;
20124;SDS011;10223;50.862;4.360;2023-12-22T08:32:15;6.70;;;2.10;;
20124;SDS011;10223;50.862;4.360;2023-12-22T08:34:42;4.73;;;1.83;;
20124;SDS011;10223;50.862;4.360;2023-12-22T08:37:09;5.13;;;2.30;;
20124;SDS011;10223;50.862;4.360;2023-12-22T08:39:37;9.23;;;2.80;;
20124;SDS011;10223;50.862;4.360;2023-12-22T08:42:04;8.00;;;2.23;;
20124;SDS011;10223;50.862;4.360;2023-12-22T08:44:31;7.90;;;2.47;;
20124;SDS011;10223;50.862;4.360;2023-12-22T08:46:58;8.77;;;2.87;;
20124;SDS011;10223;50.862;4.360;2023-12-22T08:49:26;9.80;;;2.90;;
20124;SDS011;10223;50.862;4.360;2023-12-22T08:51:53;8.37;;;3.40;;
20124;SDS011;10223;50.862;4.360;2023-12-22T08:54:21;4.23;;;2.60;;
20124;SDS011;10223;50.862;4.360;2023-12-22T08:56:50;8.57;;;3.07;;
20124;SDS011;10223;50.862;4.360;2023-12-22T08:59:17;6.77;;;2.93;;
20124;SDS011;10223;50.862;4.360;2023-12-22T09:01:45;7.00;;;3.30;;
20124;SDS011;10223;50.862;4.360;2023-12-22T09:04:12;6.40;;;2.97;;
20124;SDS011;10223;50.862;4.360;2023-12-22T09:06:40;9.63;;;3.00;;
20124;SDS011;10223;50.862;4.360;2023-12-22T09:09:07;7.43;;;3.20;;
20124;SDS011;10223;50.862;4.360;2023-12-22T09:11:34;7.30;;;2.90;;
20124;SDS011;10223;50.862;4.360;2023-12-22T09:14:03;7.57;;;2.67;;
20124;SDS011;10223;50.862;4.360;2023-12-22T09:16:34;6.03;;;2.20;;
20124;SDS011;10223;50.862;4.360;2023-12-22T09:19:02;8.00;;;2.17;;
20124;SDS011;10223;50.862;4.360;2023-12-22T09:21:29;5.83;;;2.17;;
20124;SDS011;10223;50.862;4.360;2023-12-22T09:23:56;7.50;;;1.97;;
20124;SDS011;10223;50.862;4.360;2023-12-22T09:26:23;9.77;;;2.77;;
20124;SDS011;10223;50.862;4.360;2023-12-22T09:28:51;8.40;;;2.23;;
20124;SDS011;10223;50.862;4.360;2023-12-22T09:31:19;3.27;;;1.70;;
20124;SDS011;10223;50.862;4.360;2023-12-22T09:33:47;7.37;;;2.00;;
20124;SDS011;10223;50.862;4.360;2023-12-22T09:36:14;4.23;;;1.60;;
20124;SDS011;10223;50.862;4.360;2023-12-22T09:38:42;7.60;;;1.60;;
20124;SDS011;10223;50.862;4.360;2023-12-22T09:41:09;4.67;;;1.53;;
20124;SDS011;10223;50.862;4.360;2023-12-22T09:43:36;6.67;;;1.23;;
20124;SDS011;10223;50.862;4.360;2023-12-22T09:46:05;5.13;;;1.60;;
20124;SDS011;10223;50.862;4.360;2023-12-22T09:48:35;6.67;;;1.20;;
20124;SDS011;10223;50.862;4.360;2023-12-22T09:51:05;6.63;;;1.37;;
20124;SDS011;10223;50.862;4.360;2023-12-22T09:53:33;4.77;;;1.50;;
20124;SDS011;10223;50.862;4.360;2023-12-22T09:56:02;2.63;;;1.00;;
20124;SDS011;10223;50.862;4.360;2023-12-22T09:58:29;6.17;;;1.30;;
20124;SDS011;10223;50.862;4.360;2023-12-22T10:00:59;4.03;;;1.43;;
20124;SDS011;10223;50.862;4.360;2023-12-22T10:03:29;5.17;;;1.20;;
20124;SDS011;10223;50.862;4.360;2023-12-22T10:05:58;8.97;;;1.30;;
20124;SDS011;10223;50.862;4.360;2023-12-22T10:08:26;4.57;;;1.40;;
20124;SDS011;10223;50.862;4.360;2023-12-22T10:10:53;2.20;;;1.00;;
20124;SDS011;10223;50.862;4.360;2023-12-22T10:13:21;6.30;;;1.70;;
20124;SDS011;10223;50.862;4.360;2023-12-22T10:15:48;9.97;;;1.50;;
20124;SDS011;10223;50.862;4.360;2023-12-22T10:18:15;4.30;;;1.30;;
20124;SDS011;10223;50.862;4.360;2023-12-22T10:20:43;4.00;;;1.13;;
20124;SDS011;10223;50.862;4.360;2023-12-22T10:23:13;2.70;;;1.23;;
20124;SDS011;10223;50.862;4.360;2023-12-22T10:25:40;2.30;;;1.10;;
20124;SDS011;10223;50.862;4.360;2023-12-22T10:28:09;5.40;;;1.50;;
20124;SDS011;10223;50.862;4.360;2023-12-22T10:30:38;4.77;;;1.10;;
20124;SDS011;10223;50.862;4.360;2023-12-22T10:33:07;4.37;;;1.23;;
20124;SDS011;10223;50.862;4.360;2023-12-22T10:35:34;4.33;;;1.70;;
20124;SDS011;10223;50.862;4.360;2023-12-22T10:38:01;5.30;;;1.80;;
20124;SDS011;10223;50.862;4.360;2023-12-22T10:40:29;6.70;;;1.60;;
20124;SDS011;10223;50.862;4.360;2023-12-22T10:42:56;7.03;;;1.47;;
20124;SDS011;10223;50.862;4.360;2023-12-22T10:45:25;3.53;;;1.57;;
20124;SDS011;10223;50.862;4.360;2023-12-22T10:47:54;8.77;;;1.70;;
20124;SDS011;10223;50.862;4.360;2023-12-22T10:50:21;7.17;;;1.80;;
20124;SDS011;10223;50.862;4.360;2023-12-22T10:52:49;6.67;;;1.60;;
20124;SDS011;10223;50.862;4.360;2023-12-22T10:55:17;3.97;;;1.37;;
20124;SDS011;10223;50.862;4.360;2023-12-22T10:57:46;3.90;;;1.60;;
20124;SDS011;10223;50.862;4.360;2023-12-22T11:00:13;7.47;;;1.50;;
20124;SDS011;10223;50.862;4.360;2023-12-22T11:02:46;3.50;;;1.17;;
20124;SDS011;10223;50.862;4.360;2023-12-22T11:05:14;3.37;;;1.20;;
20124;SDS011;10223;50.862;4.360;2023-12-22T11:07:45;3.30;;;1.00;;
20124;SDS011;10223;50.862;4.360;2023-12-22T11:10:14;3.17;;;1.30;;
20124;SDS011;10223;50.862;4.360;2023-12-22T11:12:47;5.87;;;1.43;;
20124;SDS011;10223;50.862;4.360;2023-12-22T11:15:15;7.17;;;1.87;;
20124;SDS011;10223;50.862;4.360;2023-12-22T11:17:44;7.13;;;2.13;;
20124;SDS011;10223;50.862;4.360;2023-12-22T11:20:12;4.10;;;1.30;;
20124;SDS011;10223;50.862;4.360;2023-12-22T11:22:40;5.03;;;1.10;;
20124;SDS011;10223;50.862;4.360;2023-12-22T11:25:09;3.20;;;1.00;;
20124;SDS011;10223;50.862;4.360;2023-12-22T11:27:37;5.33;;;1.30;;
20124;SDS011;10223;50.862;4.360;2023-12-22T11:30:06;4.40;;;1.17;;
20124;SDS011;10223;50.862;4.360;2023-12-22T11:32:35;7.37;;;1.27;;
20124;SDS011;10223;50.862;4.360;2023-12-22T11:35:02;2.67;;;1.20;;
20124;SDS011;10223;50.862;4.360;2023-12-22T11:37:30;4.37;;;1.07;;
20124;SDS011;10223;50.862;4.360;2023-12-22T11:39:58;2.60;;;1.00;;
20124;SDS011;10223;50.862;4.360;2023-12-22T11:42:25;5.47;;;1.00;;
20124;SDS011;10223;50.862;4.360;2023-12-22T11:44:54;1.93;;;0.80;;
20124;SDS011;10223;50.862;4.360;2023-12-22T11:47:26;3.83;;;1.33;;
20124;SDS011;10223;50.862;4.360;2023-12-22T11:49:55;2.10;;;1.10;;
20124;SDS011;10223;50.862;4.360;2023-12-22T11:52:24;4.03;;;1.10;;
20124;SDS011;10223;50.862;4.360;2023-12-22T11:54:55;5.87;;;1.30;;
20124;SDS011;10223;50.862;4.360;2023-12-22T11:57:30;2.77;;;0.87;;
20124;SDS011;10223;50.862;4.360;2023-12-22T11:59:58;4.53;;;1.67;;
20124;SDS011;10223;50.862;4.360;2023-12-22T12:02:40;4.10;;;1.20;;
20124;SDS011;10223;50.862;4.360;2023-12-22T12:05:20;4.33;;;1.57;;
20124;SDS011;10223;50.862;4.360;2023-12-22T12:07:47;6.33;;;1.40;;
20124;SDS011;10223;50.862;4.360;2023-12-22T12:13:16;3.97;;;1.10;;
20124;SDS011;10223;50.862;4.360;2023-12-22T12:15:49;3.47;;;1.20;;
20124;SDS011;10223;50.862;4.360;2023-12-22T12:18:18;4.17;;;1.40;;
20124;SDS011;10223;50.862;4.360;2023-12-22T12:20:48;6.07;;;0.90;;
20124;SDS011;10223;50.862;4.360;2023-12-22T12:23:15;4.07;;;1.20;;
20124;SDS011;10223;50.862;4.360;2023-12-22T12:25:43;2.47;;;0.70;;
20124;SDS011;10223;50.862;4.360;2023-12-22T12:28:10;2.30;;;0.80;;
20124;SDS011;10223;50.862;4.360;2023-12-22T12:30:38;3.90;;;2.03;;
20124;SDS011;10223;50.862;4.360;2023-12-22T12:33:06;4.07;;;0.70;;
20124;SDS011;10223;50.862;4.360;2023-12-22T12:35:37;4.30;;;0.90;;
20124;SDS011;10223;50.862;4.360;2023-12-22T12:38:05;2.47;;;0.87;;
20124;SDS011;10223;50.862;4.360;2023-12-22T12:40:32;3.93;;;0.80;;
20124;SDS011;10223;50.862;4.360;2023-12-22T12:43:00;1.57;;;0.60;;
20124;SDS011;10223;50.862;4.360;2023-12-22T12:45:28;4.70;;;1.20;;
20124;SDS011;10223;50.862;4.360;2023-12-22T12:47:55;3.43;;;0.70;;
20124;SDS011;10223;50.862;4.360;2023-12-22T12:50:23;1.83;;;0.70;;
20124;SDS011;10223;50.862;4.360;2023-12-22T12:52:52;5.53;;;1.03;;
20124;SDS011;10223;50.862;4.360;2023-12-22T12:55:20;2.03;;;0.60;;
20124;SDS011;10223;50.862;4.360;2023-12-22T12:57:48;5.67;;;1.07;;
20124;SDS011;10223;50.862;4.360;2023-12-22T13:00:16;3.67;;;0.77;;
20124;SDS011;10223;50.862;4.360;2023-12-22T13:02:43;7.80;;;1.43;;
20124;SDS011;10223;50.862;4.360;2023-12-22T13:05:19;5.63;;;1.13;;
20124;SDS011;10223;50.862;4.360;2023-12-22T13:07:47;4.07;;;0.80;;
20124;SDS011;10223;50.862;4.360;2023-12-22T13:10:22;9.57;;;1.37;;
20124;SDS011;10223;50.862;4.360;2023-12-22T13:12:50;6.03;;;1.03;;
20124;SDS011;10223;50.862;4.360;2023-12-22T13:15:19;3.77;;;1.00;;
20124;SDS011;10223;50.862;4.360;2023-12-22T13:17:46;5.33;;;1.00;;
20124;SDS011;10223;50.862;4.360;2023-12-22T13:20:14;6.47;;;1.00;;
20124;SDS011;10223;50.862;4.360;2023-12-22T13:22:43;5.43;;;0.90;;
20124;SDS011;10223;50.862;4.360;2023-12-22T13:25:11;5.17;;;1.10;;
20124;SDS011;10223;50.862;4.360;2023-12-22T13:27:46;12.43;;;1.53;;
20124;SDS011;10223;50.862;4.360;2023-12-22T13:30:13;9.13;;;1.40;;
20124;SDS011;10223;50.862;4.360;2023-12-22T13:32:41;3.10;;;0.70;;
20124;SDS011;10223;50.862;4.360;2023-12-22T13:35:08;6.87;;;1.13;;
20124;SDS011;10223;50.862;4.360;2023-12-22T13:37:40;3.83;;;0.90;;
20124;SDS011;10223;50.862;4.360;2023-12-22T13:40:08;2.93;;;0.70;;
20124;SDS011;10223;50.862;4.360;2023-12-22T13:42:36;10.17;;;1.07;;
20124;SDS011;10223;50.862;4.360;2023-12-22T13:45:05;5.23;;;0.90;;
20124;SDS011;10223;50.862;4.360;2023-12-22T13:47:39;7.43;;;1.03;;
20124;SDS011;10223;50.862;4.360;2023-12-22T13:50:12;3.53;;;1.07;;
20124;SDS011;10223;50.862;4.360;2023-12-22T13:52:40;7.67;;;0.90;;
20124;SDS011;10223;50.862;4.360;2023-12-22T13:55:12;4.30;;;0.80;;
20124;SDS011;10223;50.862;4.360;2023-12-22T13:57:40;5.53;;;1.00;;
20124;SDS011;10223;50.862;4.360;2023-12-22T14:02:54;7.50;;;0.87;;
20124;SDS011;10223;50.862;4.360;2023-12-22T14:05:21;5.50;;;1.10;;
20124;SDS011;10223;50.862;4.360;2023-12-22T14:07:48;6.37;;;1.10;;
20124;SDS011;10223;50.862;4.360;2023-12-22T14:10:15;4.73;;;0.60;;
20124;SDS011;10223;50.862;4.360;2023-12-22T14:12:43;6.43;;;0.90;;
20124;SDS011;10223;50.862;4.360;2023-12-22T14:15:10;5.97;;;1.00;;
20124;SDS011;10223;50.862;4.360;2023-12-22T14:17:39;4.53;;;1.17;;
20124;SDS011;10223;50.862;4.360;2023-12-22T14:20:08;5.10;;;0.87;;
20124;SDS011;10223;50.862;4.360;2023-12-22T14:22:36;3.20;;;1.03;;
20124;SDS011;10223;50.862;4.360;2023-12-22T14:25:03;3.90;;;1.00;;
20124;SDS011;10223;50.862;4.360;2023-12-22T14:27:31;5.90;;;0.90;;
20124;SDS011;10223;50.862;4.360;2023-12-22T14:29:58;5.30;;;1.00;;
20124;SDS011;10223;50.862;4.360;2023-12-22T14:32:25;6.30;;;1.27;;
20124;SDS011;10223;50.862;4.360;2023-12-22T14:34:53;4.97;;;1.00;;
20124;SDS011;10223;50.862;4.360;2023-12-22T14:37:20;4.63;;;0.87;;
20124;SDS011;10223;50.862;4.360;2023-12-22T14:39:47;6.37;;;0.93;;
20124;SDS011;10223;50.862;4.360;2023-12-22T14:42:14;5.23;;;1.20;;
20124;SDS011;10223;50.862;4.360;2023-12-22T14:44:41;3.97;;;0.80;;
20124;SDS011;10223;50.862;4.360;2023-12-22T14:47:08;3.00;;;0.50;;
20124;SDS011;10223;50.862;4.360;2023-12-22T14:49:35;3.33;;;0.63;;
20124;SDS011;10223;50.862;4.360;2023-12-22T14:52:04;4.33;;;0.80;;